sensor_id;sensor_type;location;lat;lon;timestamp;P1;durP1;ratioP1;P2;durP2;ratioP2
9330;SDS011;4704;50.470;12.072;2023-06-04T00:02:21;4.22;;;3.72;;
9330;SDS011;4704;50.470;12.072;2023-06-04T00:04:49;4.07;;;3.78;;
9330;SDS011;4704;50.470;12.072;2023-06-04T00:07:16;3.85;;;3.55;;
9330;SDS011;4704;50.470;12.072;2023-06-04T00:09:45;3.75;;;3.45;;
9330;SDS011;4704;50.470;12.072;2023-06-04T00:12:12;3.53;;;3.20;;
9330;SDS011;4704;50.470;12.072;2023-06-04T00:14:41;3.50;;;3.20;;
9330;SDS011;4704;50.470;12.072;2023-06-04T00:17:09;3.75;;;3.45;;
9330;SDS011;4704;50.470;12.072;2023-06-04T00:19:38;4.13;;;3.55;;
9330;SDS011;4704;50.470;12.072;2023-06-04T00:22:06;3.50;;;3.20;;
9330;SDS011;4704;50.470;12.072;2023-06-04T00:24:34;3.38;;;3.08;;
9330;SDS011;4704;50.470;12.072;2023-06-04T00:27:01;3.40;;;3.10;;
9330;SDS011;4704;50.470;12.072;2023-06-04T00:29:29;3.58;;;3.35;;
9330;SDS011;4704;50.470;12.072;2023-06-04T00:31:58;3.58;;;3.28;;
9330;SDS011;4704;50.470;12.072;2023-06-04T00:34:25;3.95;;;3.30;;
9330;SDS011;4704;50.470;12.072;2023-06-04T00:36:53;3.80;;;3.50;;
9330;SDS011;4704;50.470;12.072;2023-06-04T00:39:20;3.47;;;3.17;;
9330;SDS011;4704;50.470;12.072;2023-06-04T00:41:48;3.67;;;3.38;;
9330;SDS011;4704;50.470;12.072;2023-06-04T00:44:15;3.47;;;3.17;;
9330;SDS011;4704;50.470;12.072;2023-06-04T00:46:43;3.10;;;2.90;;
9330;SDS011;4704;50.470;12.072;2023-06-04T00:49:14;3.67;;;3.10;;
9330;SDS011;4704;50.470;12.072;2023-06-04T00:51:42;3.30;;;3.05;;
9330;SDS011;4704;50.470;12.072;2023-06-04T00:54:09;3.78;;;3.30;;
9330;SDS011;4704;50.470;12.072;2023-06-04T00:56:37;3.47;;;3.17;;
9330;SDS011;4704;50.470;12.072;2023-06-04T00:59:05;5.07;;;3.10;;
9330;SDS011;4704;50.470;12.072;2023-06-04T01:01:36;3.45;;;3.15;;
9330;SDS011;4704;50.470;12.072;2023-06-04T01:04:06;3.30;;;3.00;;
9330;SDS011;4704;50.470;12.072;2023-06-04T01:06:39;3.13;;;2.83;;
9330;SDS011;4704;50.470;12.072;2023-06-04T01:09:07;3.45;;;2.92;;
9330;SDS011;4704;50.470;12.072;2023-06-04T01:11:35;3.30;;;2.97;;
9330;SDS011;4704;50.470;12.072;2023-06-04T01:14:03;3.10;;;2.90;;
9330;SDS011;4704;50.470;12.072;2023-06-04T01:16:39;2.97;;;2.78;;
9330;SDS011;4704;50.470;12.072;2023-06-04T01:19:11;2.95;;;2.75;;
9330;SDS011;4704;50.470;12.072;2023-06-04T01:21:47;2.90;;;2.70;;
9330;SDS011;4704;50.470;12.072;2023-06-04T01:24:16;3.22;;;2.70;;
9330;SDS011;4704;50.470;12.072;2023-06-04T01:26:48;3.90;;;3.10;;
9330;SDS011;4704;50.470;12.072;2023-06-04T01:29:16;3.05;;;2.80;;
9330;SDS011;4704;50.470;12.072;2023-06-04T01:31:44;3.20;;;3.00;;
9330;SDS011;4704;50.470;12.072;2023-06-04T01:34:12;3.08;;;2.88;;
9330;SDS011;4704;50.470;12.072;2023-06-04T01:36:40;3.30;;;3.00;;
9330;SDS011;4704;50.470;12.072;2023-06-04T01:39:08;3.08;;;2.88;;
9330;SDS011;4704;50.470;12.072;2023-06-04T01:41:36;2.83;;;2.63;;
9330;SDS011;4704;50.470;12.072;2023-06-04T01:44:04;2.85;;;2.65;;
9330;SDS011;4704;50.470;12.072;2023-06-04T01:46:32;3.70;;;2.88;;
9330;SDS011;4704;50.470;12.072;2023-06-04T01:48:59;2.90;;;2.70;;
9330;SDS011;4704;50.470;12.072;2023-06-04T01:51:26;3.10;;;2.80;;
9330;SDS011;4704;50.470;12.072;2023-06-04T01:53:54;2.92;;;2.72;;
9330;SDS011;4704;50.470;12.072;2023-06-04T01:56:23;2.55;;;2.35;;
9330;SDS011;4704;50.470;12.072;2023-06-04T01:58:51;3.13;;;2.88;;
9330;SDS011;4704;50.470;12.072;2023-06-04T02:01:19;2.80;;;2.60;;
9330;SDS011;4704;50.470;12.072;2023-06-04T02:03:46;2.97;;;2.78;;
9330;SDS011;4704;50.470;12.072;2023-06-04T02:06:13;2.65;;;2.45;;
9330;SDS011;4704;50.470;12.072;2023-06-04T02:08:41;3.40;;;2.63;;
9330;SDS011;4704;50.470;12.072;2023-06-04T02:11:09;2.63;;;2.42;;
9330;SDS011;4704;50.470;12.072;2023-06-04T02:13:38;2.58;;;2.30;;
9330;SDS011;4704;50.470;12.072;2023-06-04T02:16:06;2.97;;;2.30;;
9330;SDS011;4704;50.470;12.072;2023-06-04T02:18:33;2.72;;;2.53;;
9330;SDS011;4704;50.470;12.072;2023-06-04T02:21:01;2.85;;;2.30;;
9330;SDS011;4704;50.470;12.072;2023-06-04T02:23:28;2.47;;;2.20;;
9330;SDS011;4704;50.470;12.072;2023-06-04T02:25:55;3.03;;;2.40;;
9330;SDS011;4704;50.470;12.072;2023-06-04T02:28:23;2.50;;;2.30;;
9330;SDS011;4704;50.470;12.072;2023-06-04T02:30:52;2.78;;;2.58;;
9330;SDS011;4704;50.470;12.072;2023-06-04T02:33:19;2.85;;;2.60;;
9330;SDS011;4704;50.470;12.072;2023-06-04T02:35:47;2.60;;;2.40;;
9330;SDS011;4704;50.470;12.072;2023-06-04T02:38:15;2.38;;;2.17;;
9330;SDS011;4704;50.470;12.072;2023-06-04T02:40:42;2.53;;;2.33;;
9330;SDS011;4704;50.470;12.072;2023-06-04T02:43:10;2.50;;;2.30;;
9330;SDS011;4704;50.470;12.072;2023-06-04T02:45:37;2.40;;;2.20;;
9330;SDS011;4704;50.470;12.072;2023-06-04T02:48:06;2.40;;;2.20;;
9330;SDS011;4704;50.470;12.072;2023-06-04T02:50:33;2.33;;;2.15;;
9330;SDS011;4704;50.470;12.072;2023-06-04T02:53:00;2.50;;;2.30;;
9330;SDS011;4704;50.470;12.072;2023-06-04T02:55:28;2.17;;;1.92;;
9330;SDS011;4704;50.470;12.072;2023-06-04T02:57:55;2.53;;;2.30;;
9330;SDS011;4704;50.470;12.072;2023-06-04T03:00:23;2.63;;;2.25;;
9330;SDS011;4704;50.470;12.072;2023-06-04T03:02:50;2.22;;;2.10;;
9330;SDS011;4704;50.470;12.072;2023-06-04T03:05:19;2.30;;;2.10;;
9330;SDS011;4704;50.470;12.072;2023-06-04T03:07:49;2.28;;;2.08;;
9330;SDS011;4704;50.470;12.072;2023-06-04T03:10:16;2.88;;;1.92;;
9330;SDS011;4704;50.470;12.072;2023-06-04T03:12:44;2.40;;;2.20;;
9330;SDS011;4704;50.470;12.072;2023-06-04T03:15:11;2.25;;;2.05;;
9330;SDS011;4704;50.470;12.072;2023-06-04T03:17:38;2.20;;;2.00;;
9330;SDS011;4704;50.470;12.072;2023-06-04T03:20:06;2.47;;;1.95;;
9330;SDS011;4704;50.470;12.072;2023-06-04T03:22:36;2.20;;;2.00;;
9330;SDS011;4704;50.470;12.072;2023-06-04T03:25:04;3.05;;;1.98;;
9330;SDS011;4704;50.470;12.072;2023-06-04T03:27:31;1.98;;;1.80;;
9330;SDS011;4704;50.470;12.072;2023-06-04T03:29:59;3.22;;;2.13;;
9330;SDS011;4704;50.470;12.072;2023-06-04T03:32:26;2.05;;;1.85;;
9330;SDS011;4704;50.470;12.072;2023-06-04T03:34:54;2.17;;;2.00;;
9330;SDS011;4704;50.470;12.072;2023-06-04T03:37:21;2.13;;;1.90;;
9330;SDS011;4704;50.470;12.072;2023-06-04T03:39:50;1.92;;;1.83;;
9330;SDS011;4704;50.470;12.072;2023-06-04T03:42:17;2.15;;;2.00;;
9330;SDS011;4704;50.470;12.072;2023-06-04T03:44:44;2.03;;;1.83;;
9330;SDS011;4704;50.470;12.072;2023-06-04T03:47:12;1.80;;;1.70;;
9330;SDS011;4704;50.470;12.072;2023-06-04T03:49:40;2.25;;;2.05;;
9330;SDS011;4704;50.470;12.072;2023-06-04T03:52:07;2.90;;;2.15;;
9330;SDS011;4704;50.470;12.072;2023-06-04T03:54:34;2.00;;;1.80;;
9330;SDS011;4704;50.470;12.072;2023-06-04T03:57:03;2.45;;;2.00;;
9330;SDS011;4704;50.470;12.072;2023-06-04T03:59:30;2.15;;;1.98;;
9330;SDS011;4704;50.470;12.072;2023-06-04T04:01:58;1.70;;;1.60;;
9330;SDS011;4704;50.470;12.072;2023-06-04T04:04:25;2.63;;;1.88;;
9330;SDS011;4704;50.470;12.072;2023-06-04T04:06:52;2.22;;;2.00;;
9330;SDS011;4704;50.470;12.072;2023-06-04T04:09:20;2.67;;;2.10;;
9330;SDS011;4704;50.470;12.072;2023-06-04T04:11:47;1.95;;;1.85;;
9330;SDS011;4704;50.470;12.072;2023-06-04T04:14:15;2.35;;;2.00;;
9330;SDS011;4704;50.470;12.072;2023-06-04T04:16:43;2.03;;;1.92;;
9330;SDS011;4704;50.470;12.072;2023-06-04T04:19:10;2.17;;;1.98;;
9330;SDS011;4704;50.470;12.072;2023-06-04T04:21:38;2.50;;;2.30;;
9330;SDS011;4704;50.470;12.072;2023-06-04T04:24:05;2.30;;;2.10;;
9330;SDS011;4704;50.470;12.072;2023-06-04T04:26:33;2.35;;;2.15;;
9330;SDS011;4704;50.470;12.072;2023-06-04T04:29:00;2.75;;;2.15;;
9330;SDS011;4704;50.470;12.072;2023-06-04T04:31:29;2.67;;;1.95;;
9330;SDS011;4704;50.470;12.072;2023-06-04T04:33:57;2.55;;;2.35;;
9330;SDS011;4704;50.470;12.072;2023-06-04T04:36:25;2.38;;;2.17;;
9330;SDS011;4704;50.470;12.072;2023-06-04T04:38:52;2.30;;;2.10;;
9330;SDS011;4704;50.470;12.072;2023-06-04T04:41:20;2.13;;;1.92;;
9330;SDS011;4704;50.470;12.072;2023-06-04T04:43:48;2.30;;;2.10;;
9330;SDS011;4704;50.470;12.072;2023-06-04T04:46:16;2.63;;;2.28;;
9330;SDS011;4704;50.470;12.072;2023-06-04T04:48:45;2.20;;;2.00;;
9330;SDS011;4704;50.470;12.072;2023-06-04T04:51:12;2.33;;;2.08;;
9330;SDS011;4704;50.470;12.072;2023-06-04T04:53:39;2.40;;;2.20;;
9330;SDS011;4704;50.470;12.072;2023-06-04T04:56:07;2.80;;;2.00;;
9330;SDS011;4704;50.470;12.072;2023-06-04T04:58:35;2.40;;;2.20;;
9330;SDS011;4704;50.470;12.072;2023-06-04T05:01:03;2.30;;;2.10;;
9330;SDS011;4704;50.470;12.072;2023-06-04T05:03:30;2.25;;;2.13;;
9330;SDS011;4704;50.470;12.072;2023-06-04T05:05:59;2.30;;;2.08;;
9330;SDS011;4704;50.470;12.072;2023-06-04T05:08:26;2.83;;;2.10;;
9330;SDS011;4704;50.470;12.072;2023-06-04T05:10:54;2.25;;;2.10;;
9330;SDS011;4704;50.470;12.072;2023-06-04T05:13:21;2.67;;;2.10;;
9330;SDS011;4704;50.470;12.072;2023-06-04T05:15:49;2.63;;;2.42;;
9330;SDS011;4704;50.470;12.072;2023-06-04T05:18:17;2.95;;;2.05;;
9330;SDS011;4704;50.470;12.072;2023-06-04T05:20:45;2.40;;;2.20;;
9330;SDS011;4704;50.470;12.072;2023-06-04T05:23:14;2.40;;;2.20;;
9330;SDS011;4704;50.470;12.072;2023-06-04T05:25:42;3.90;;;2.30;;
9330;SDS011;4704;50.470;12.072;2023-06-04T05:28:09;2.60;;;2.40;;
9330;SDS011;4704;50.470;12.072;2023-06-04T05:30:37;2.83;;;2.53;;
9330;SDS011;4704;50.470;12.072;2023-06-04T05:33:06;2.47;;;2.28;;
9330;SDS011;4704;50.470;12.072;2023-06-04T05:35:42;2.60;;;2.40;;
9330;SDS011;4704;50.470;12.072;2023-06-04T05:38:10;2.97;;;2.47;;
9330;SDS011;4704;50.470;12.072;2023-06-04T05:40:45;3.05;;;2.42;;
9330;SDS011;4704;50.470;12.072;2023-06-04T05:43:12;2.55;;;2.35;;
9330;SDS011;4704;50.470;12.072;2023-06-04T05:45:40;2.20;;;1.95;;
9330;SDS011;4704;50.470;12.072;2023-06-04T05:48:07;2.33;;;2.13;;
9330;SDS011;4704;50.470;12.072;2023-06-04T05:50:34;2.30;;;2.10;;
9330;SDS011;4704;50.470;12.072;2023-06-04T05:53:02;2.25;;;2.05;;
9330;SDS011;4704;50.470;12.072;2023-06-04T05:55:29;2.15;;;1.95;;
9330;SDS011;4704;50.470;12.072;2023-06-04T05:57:58;2.60;;;2.40;;
9330;SDS011;4704;50.470;12.072;2023-06-04T06:00:25;2.30;;;2.10;;
9330;SDS011;4704;50.470;12.072;2023-06-04T06:02:53;2.47;;;2.28;;
9330;SDS011;4704;50.470;12.072;2023-06-04T06:05:21;3.35;;;2.40;;
9330;SDS011;4704;50.470;12.072;2023-06-04T06:07:48;2.20;;;2.00;;
9330;SDS011;4704;50.470;12.072;2023-06-04T06:10:15;2.28;;;2.08;;
9330;SDS011;4704;50.470;12.072;2023-06-04T06:12:42;2.38;;;2.15;;
9330;SDS011;4704;50.470;12.072;2023-06-04T06:15:11;2.38;;;2.17;;
9330;SDS011;4704;50.470;12.072;2023-06-04T06:17:39;2.17;;;1.95;;
9330;SDS011;4704;50.470;12.072;2023-06-04T06:20:07;2.40;;;2.20;;
9330;SDS011;4704;50.470;12.072;2023-06-04T06:22:34;2.30;;;2.10;;
9330;SDS011;4704;50.470;12.072;2023-06-04T06:25:01;2.47;;;2.10;;
9330;SDS011;4704;50.470;12.072;2023-06-04T06:27:30;2.38;;;2.03;;
9330;SDS011;4704;50.470;12.072;2023-06-04T06:29:58;2.10;;;1.90;;
9330;SDS011;4704;50.470;12.072;2023-06-04T06:32:27;2.28;;;2.08;;
9330;SDS011;4704;50.470;12.072;2023-06-04T06:34:54;2.20;;;2.00;;
9330;SDS011;4704;50.470;12.072;2023-06-04T06:37:21;2.20;;;2.00;;
9330;SDS011;4704;50.470;12.072;2023-06-04T06:39:49;2.65;;;2.10;;
9330;SDS011;4704;50.470;12.072;2023-06-04T06:42:16;2.30;;;1.92;;
9330;SDS011;4704;50.470;12.072;2023-06-04T06:44:44;2.28;;;2.00;;
9330;SDS011;4704;50.470;12.072;2023-06-04T06:47:12;2.30;;;2.10;;
9330;SDS011;4704;50.470;12.072;2023-06-04T06:49:41;2.13;;;1.92;;
9330;SDS011;4704;50.470;12.072;2023-06-04T06:52:09;2.28;;;2.08;;
9330;SDS011;4704;50.470;12.072;2023-06-04T06:54:36;2.67;;;2.38;;
9330;SDS011;4704;50.470;12.072;2023-06-04T06:57:04;2.53;;;2.33;;
9330;SDS011;4704;50.470;12.072;2023-06-04T06:59:34;2.58;;;2.38;;
9330;SDS011;4704;50.470;12.072;2023-06-04T07:02:02;2.35;;;2.13;;
9330;SDS011;4704;50.470;12.072;2023-06-04T07:04:29;2.58;;;2.15;;
9330;SDS011;4704;50.470;12.072;2023-06-04T07:06:58;2.47;;;2.13;;
9330;SDS011;4704;50.470;12.072;2023-06-04T07:09:25;2.40;;;2.20;;
9330;SDS011;4704;50.470;12.072;2023-06-04T07:11:53;3.28;;;2.63;;
9330;SDS011;4704;50.470;12.072;2023-06-04T07:14:20;2.53;;;2.33;;
9330;SDS011;4704;50.470;12.072;2023-06-04T07:16:48;2.47;;;2.20;;
9330;SDS011;4704;50.470;12.072;2023-06-04T07:19:15;4.05;;;2.40;;
9330;SDS011;4704;50.470;12.072;2023-06-04T07:21:42;2.90;;;2.28;;
9330;SDS011;4704;50.470;12.072;2023-06-04T07:24:11;2.40;;;2.20;;
9330;SDS011;4704;50.470;12.072;2023-06-04T07:26:38;2.60;;;2.40;;
9330;SDS011;4704;50.470;12.072;2023-06-04T07:29:06;3.05;;;2.58;;
9330;SDS011;4704;50.470;12.072;2023-06-04T07:31:33;3.42;;;2.30;;
9330;SDS011;4704;50.470;12.072;2023-06-04T07:34:01;2.58;;;2.33;;
9330;SDS011;4704;50.470;12.072;2023-06-04T07:36:28;2.88;;;2.20;;
9330;SDS011;4704;50.470;12.072;2023-06-04T07:38:56;2.42;;;2.22;;
9330;SDS011;4704;50.470;12.072;2023-06-04T07:41:25;2.10;;;1.90;;
9330;SDS011;4704;50.470;12.072;2023-06-04T07:43:52;2.60;;;2.20;;
9330;SDS011;4704;50.470;12.072;2023-06-04T07:46:19;2.30;;;2.10;;
9330;SDS011;4704;50.470;12.072;2023-06-04T07:48:47;2.28;;;2.08;;
9330;SDS011;4704;50.470;12.072;2023-06-04T07:51:14;2.20;;;2.00;;
9330;SDS011;4704;50.470;12.072;2023-06-04T07:53:43;1.88;;;1.63;;
9330;SDS011;4704;50.470;12.072;2023-06-04T07:56:11;2.78;;;2.35;;
9330;SDS011;4704;50.470;12.072;2023-06-04T07:58:40;2.03;;;1.83;;
9330;SDS011;4704;50.470;12.072;2023-06-04T08:01:07;2.00;;;1.70;;
9330;SDS011;4704;50.470;12.072;2023-06-04T08:03:34;2.47;;;1.83;;
9330;SDS011;4704;50.470;12.072;2023-06-04T08:06:02;2.00;;;1.80;;
9330;SDS011;4704;50.470;12.072;2023-06-04T08:08:29;5.80;;;1.70;;
9330;SDS011;4704;50.470;12.072;2023-06-04T08:10:59;2.13;;;1.67;;
9330;SDS011;4704;50.470;12.072;2023-06-04T08:13:26;1.70;;;1.58;;
9330;SDS011;4704;50.470;12.072;2023-06-04T08:15:55;1.52;;;1.42;;
9330;SDS011;4704;50.470;12.072;2023-06-04T08:18:22;1.55;;;1.40;;
9330;SDS011;4704;50.470;12.072;2023-06-04T08:20:49;5.03;;;1.75;;
9330;SDS011;4704;50.470;12.072;2023-06-04T08:23:17;3.72;;;1.83;;
9330;SDS011;4704;50.470;12.072;2023-06-04T08:25:44;4.45;;;1.70;;
9330;SDS011;4704;50.470;12.072;2023-06-04T08:28:13;2.97;;;1.70;;
9330;SDS011;4704;50.470;12.072;2023-06-04T08:30:40;3.25;;;1.95;;
9330;SDS011;4704;50.470;12.072;2023-06-04T08:33:09;2.65;;;1.85;;
9330;SDS011;4704;50.470;12.072;2023-06-04T08:35:36;1.90;;;1.60;;
9330;SDS011;4704;50.470;12.072;2023-06-04T08:38:04;3.28;;;1.73;;
9330;SDS011;4704;50.470;12.072;2023-06-04T08:40:32;3.03;;;1.60;;
9330;SDS011;4704;50.470;12.072;2023-06-04T08:43:00;2.10;;;1.77;;
9330;SDS011;4704;50.470;12.072;2023-06-04T08:45:28;1.75;;;1.65;;
9330;SDS011;4704;50.470;12.072;2023-06-04T08:47:59;3.25;;;1.70;;
9330;SDS011;4704;50.470;12.072;2023-06-04T08:50:29;2.60;;;1.63;;
9330;SDS011;4704;50.470;12.072;2023-06-04T08:52:56;2.10;;;1.60;;
9330;SDS011;4704;50.470;12.072;2023-06-04T08:55:25;2.15;;;1.60;;
9330;SDS011;4704;50.470;12.072;2023-06-04T08:57:53;2.22;;;1.85;;
9330;SDS011;4704;50.470;12.072;2023-06-04T09:00:20;3.58;;;1.95;;
9330;SDS011;4704;50.470;12.072;2023-06-04T09:02:49;2.13;;;1.70;;
9330;SDS011;4704;50.470;12.072;2023-06-04T09:05:18;1.73;;;1.40;;
9330;SDS011;4704;50.470;12.072;2023-06-04T09:07:47;2.38;;;1.70;;
9330;SDS011;4704;50.470;12.072;2023-06-04T09:10:18;1.80;;;1.65;;
9330;SDS011;4704;50.470;12.072;2023-06-04T09:12:46;2.00;;;1.80;;
9330;SDS011;4704;50.470;12.072;2023-06-04T09:15:14;1.73;;;1.40;;
9330;SDS011;4704;50.470;12.072;2023-06-04T09:17:41;2.67;;;2.05;;
9330;SDS011;4704;50.470;12.072;2023-06-04T09:20:17;1.73;;;1.50;;
9330;SDS011;4704;50.470;12.072;2023-06-04T09:22:45;2.40;;;1.70;;
9330;SDS011;4704;50.470;12.072;2023-06-04T09:25:20;1.60;;;1.42;;
9330;SDS011;4704;50.470;12.072;2023-06-04T09:27:48;2.00;;;1.63;;
9330;SDS011;4704;50.470;12.072;2023-06-04T09:30:16;1.90;;;1.60;;
9330;SDS011;4704;50.470;12.072;2023-06-04T09:32:44;1.58;;;1.48;;
9330;SDS011;4704;50.470;12.072;2023-06-04T09:35:11;3.53;;;1.50;;
9330;SDS011;4704;50.470;12.072;2023-06-04T09:37:39;2.33;;;1.60;;
9330;SDS011;4704;50.470;12.072;2023-06-04T09:40:07;1.60;;;1.50;;
9330;SDS011;4704;50.470;12.072;2023-06-04T09:42:42;3.95;;;1.67;;
9330;SDS011;4704;50.470;12.072;2023-06-04T09:45:10;1.98;;;1.58;;
9330;SDS011;4704;50.470;12.072;2023-06-04T09:47:38;3.00;;;1.60;;
9330;SDS011;4704;50.470;12.072;2023-06-04T09:50:07;2.92;;;1.60;;
9330;SDS011;4704;50.470;12.072;2023-06-04T09:52:34;1.73;;;1.60;;
9330;SDS011;4704;50.470;12.072;2023-06-04T09:55:02;2.40;;;1.38;;
9330;SDS011;4704;50.470;12.072;2023-06-04T09:57:30;2.50;;;1.55;;
9330;SDS011;4704;50.470;12.072;2023-06-04T10:00:02;3.00;;;1.70;;
9330;SDS011;4704;50.470;12.072;2023-06-04T10:02:36;2.42;;;1.67;;
9330;SDS011;4704;50.470;12.072;2023-06-04T10:05:04;2.47;;;1.67;;
9330;SDS011;4704;50.470;12.072;2023-06-04T10:07:34;1.50;;;1.40;;
9330;SDS011;4704;50.470;12.072;2023-06-04T10:10:02;2.25;;;1.88;;
9330;SDS011;4704;50.470;12.072;2023-06-04T10:12:30;1.90;;;1.60;;
9330;SDS011;4704;50.470;12.072;2023-06-04T10:14:59;2.00;;;1.80;;
9330;SDS011;4704;50.470;12.072;2023-06-04T10:17:28;2.20;;;1.67;;
9330;SDS011;4704;50.470;12.072;2023-06-04T10:19:56;3.00;;;1.67;;
9330;SDS011;4704;50.470;12.072;2023-06-04T10:22:25;2.28;;;1.58;;
9330;SDS011;4704;50.470;12.072;2023-06-04T10:24:52;1.52;;;1.42;;
9330;SDS011;4704;50.470;12.072;2023-06-04T10:27:20;2.08;;;1.60;;
9330;SDS011;4704;50.470;12.072;2023-06-04T10:29:47;2.40;;;1.83;;
9330;SDS011;4704;50.470;12.072;2023-06-04T10:32:17;3.45;;;1.50;;
9330;SDS011;4704;50.470;12.072;2023-06-04T10:34:46;1.88;;;1.70;;
9330;SDS011;4704;50.470;12.072;2023-06-04T10:37:18;2.22;;;1.70;;
9330;SDS011;4704;50.470;12.072;2023-06-04T10:39:50;1.92;;;1.40;;
9330;SDS011;4704;50.470;12.072;2023-06-04T10:42:17;2.20;;;1.63;;
9330;SDS011;4704;50.470;12.072;2023-06-04T10:44:46;2.42;;;1.60;;
9330;SDS011;4704;50.470;12.072;2023-06-04T10:47:18;2.92;;;1.67;;
9330;SDS011;4704;50.470;12.072;2023-06-04T10:49:47;3.25;;;1.88;;
9330;SDS011;4704;50.470;12.072;2023-06-04T10:52:14;1.98;;;1.60;;
9330;SDS011;4704;50.470;12.072;2023-06-04T10:54:42;1.90;;;1.80;;
9330;SDS011;4704;50.470;12.072;2023-06-04T10:57:10;2.58;;;1.90;;
9330;SDS011;4704;50.470;12.072;2023-06-04T10:59:38;2.92;;;1.70;;
9330;SDS011;4704;50.470;12.072;2023-06-04T11:02:06;2.08;;;1.70;;
9330;SDS011;4704;50.470;12.072;2023-06-04T11:04:33;2.72;;;1.75;;
9330;SDS011;4704;50.470;12.072;2023-06-04T11:07:03;2.33;;;1.77;;
9330;SDS011;4704;50.470;12.072;2023-06-04T11:09:34;2.53;;;1.52;;
9330;SDS011;4704;50.470;12.072;2023-06-04T11:12:01;3.70;;;1.70;;
9330;SDS011;4704;50.470;12.072;2023-06-04T11:14:29;2.47;;;1.70;;
9330;SDS011;4704;50.470;12.072;2023-06-04T11:16:56;5.63;;;1.63;;
9330;SDS011;4704;50.470;12.072;2023-06-04T11:19:24;3.78;;;1.48;;
9330;SDS011;4704;50.470;12.072;2023-06-04T11:22:01;1.83;;;1.70;;
9330;SDS011;4704;50.470;12.072;2023-06-04T11:24:30;2.15;;;1.63;;
9330;SDS011;4704;50.470;12.072;2023-06-04T11:26:59;2.28;;;1.70;;
9330;SDS011;4704;50.470;12.072;2023-06-04T11:29:27;1.63;;;1.52;;
9330;SDS011;4704;50.470;12.072;2023-06-04T11:31:54;1.90;;;1.80;;
9330;SDS011;4704;50.470;12.072;2023-06-04T11:34:22;1.85;;;1.60;;
9330;SDS011;4704;50.470;12.072;2023-06-04T11:36:50;1.83;;;1.42;;
9330;SDS011;4704;50.470;12.072;2023-06-04T11:39:18;2.15;;;1.63;;
9330;SDS011;4704;50.470;12.072;2023-06-04T11:41:47;1.80;;;1.70;;
9330;SDS011;4704;50.470;12.072;2023-06-04T11:44:17;1.52;;;1.42;;
9330;SDS011;4704;50.470;12.072;2023-06-04T11:46:45;1.90;;;1.65;;
9330;SDS011;4704;50.470;12.072;2023-06-04T11:49:14;1.90;;;1.70;;
9330;SDS011;4704;50.470;12.072;2023-06-04T11:51:45;1.85;;;1.60;;
9330;SDS011;4704;50.470;12.072;2023-06-04T11:54:12;1.55;;;1.45;;
9330;SDS011;4704;50.470;12.072;2023-06-04T11:56:40;2.08;;;1.73;;
9330;SDS011;4704;50.470;12.072;2023-06-04T11:59:10;1.55;;;1.45;;
9330;SDS011;4704;50.470;12.072;2023-06-04T12:01:38;3.40;;;1.80;;
9330;SDS011;4704;50.470;12.072;2023-06-04T12:04:11;1.70;;;1.60;;
9330;SDS011;4704;50.470;12.072;2023-06-04T12:06:49;1.92;;;1.70;;
9330;SDS011;4704;50.470;12.072;2023-06-04T12:09:19;2.22;;;1.80;;
9330;SDS011;4704;50.470;12.072;2023-06-04T12:11:48;2.03;;;1.80;;
9330;SDS011;4704;50.470;12.072;2023-06-04T12:14:17;1.50;;;1.40;;
9330;SDS011;4704;50.470;12.072;2023-06-04T12:16:54;2.03;;;1.50;;
9330;SDS011;4704;50.470;12.072;2023-06-04T12:19:21;2.25;;;1.80;;
9330;SDS011;4704;50.470;12.072;2023-06-04T12:21:58;1.58;;;1.48;;
9330;SDS011;4704;50.470;12.072;2023-06-04T12:24:26;3.22;;;1.73;;
9330;SDS011;4704;50.470;12.072;2023-06-04T12:27:00;1.70;;;1.60;;
9330;SDS011;4704;50.470;12.072;2023-06-04T12:29:29;4.65;;;1.60;;
9330;SDS011;4704;50.470;12.072;2023-06-04T12:32:03;2.78;;;1.70;;
9330;SDS011;4704;50.470;12.072;2023-06-04T12:34:33;2.10;;;1.88;;
9330;SDS011;4704;50.470;12.072;2023-06-04T12:37:00;2.50;;;1.80;;
9330;SDS011;4704;50.470;12.072;2023-06-04T12:39:28;2.10;;;1.90;;
9330;SDS011;4704;50.470;12.072;2023-06-04T12:41:57;1.55;;;1.45;;
9330;SDS011;4704;50.470;12.072;2023-06-04T12:44:24;2.08;;;1.80;;
9330;SDS011;4704;50.470;12.072;2023-06-04T12:46:53;3.58;;;1.83;;
9330;SDS011;4704;50.470;12.072;2023-06-04T12:49:20;3.17;;;1.90;;
9330;SDS011;4704;50.470;12.072;2023-06-04T12:51:48;2.78;;;1.70;;
9330;SDS011;4704;50.470;12.072;2023-06-04T12:54:15;2.35;;;1.58;;
9330;SDS011;4704;50.470;12.072;2023-06-04T12:56:43;2.70;;;2.00;;
9330;SDS011;4704;50.470;12.072;2023-06-04T12:59:10;1.70;;;1.60;;
9330;SDS011;4704;50.470;12.072;2023-06-04T13:01:37;2.75;;;1.80;;
9330;SDS011;4704;50.470;12.072;2023-06-04T13:04:06;1.95;;;1.67;;
9330;SDS011;4704;50.470;12.072;2023-06-04T13:06:33;4.30;;;1.85;;
9330;SDS011;4704;50.470;12.072;2023-06-04T13:09:02;2.53;;;1.80;;
9330;SDS011;4704;50.470;12.072;2023-06-04T13:11:34;2.95;;;1.77;;
9330;SDS011;4704;50.470;12.072;2023-06-04T13:14:01;3.13;;;1.60;;
9330;SDS011;4704;50.470;12.072;2023-06-04T13:16:28;1.92;;;1.58;;
9330;SDS011;4704;50.470;12.072;2023-06-04T13:18:55;1.90;;;1.80;;
9330;SDS011;4704;50.470;12.072;2023-06-04T13:21:25;2.58;;;1.60;;
9330;SDS011;4704;50.470;12.072;2023-06-04T13:23:52;4.35;;;1.60;;
9330;SDS011;4704;50.470;12.072;2023-06-04T13:26:21;3.72;;;1.60;;
9330;SDS011;4704;50.470;12.072;2023-06-04T13:28:48;1.73;;;1.63;;
9330;SDS011;4704;50.470;12.072;2023-06-04T13:31:16;1.70;;;1.58;;
9330;SDS011;4704;50.470;12.072;2023-06-04T13:33:43;1.95;;;1.45;;
9330;SDS011;4704;50.470;12.072;2023-06-04T13:36:11;2.17;;;1.98;;
9330;SDS011;4704;50.470;12.072;2023-06-04T13:38:40;2.00;;;1.80;;
9330;SDS011;4704;50.470;12.072;2023-06-04T13:41:08;1.90;;;1.60;;
9330;SDS011;4704;50.470;12.072;2023-06-04T13:43:35;2.30;;;1.85;;
9330;SDS011;4704;50.470;12.072;2023-06-04T13:46:04;1.67;;;1.55;;
9330;SDS011;4704;50.470;12.072;2023-06-04T13:48:32;1.65;;;1.55;;
9330;SDS011;4704;50.470;12.072;2023-06-04T13:50:59;1.80;;;1.40;;
9330;SDS011;4704;50.470;12.072;2023-06-04T13:53:27;1.90;;;1.70;;
9330;SDS011;4704;50.470;12.072;2023-06-04T13:55:55;1.95;;;1.52;;
9330;SDS011;4704;50.470;12.072;2023-06-04T13:58:24;1.50;;;1.40;;
9330;SDS011;4704;50.470;12.072;2023-06-04T14:00:52;1.67;;;1.40;;
9330;SDS011;4704;50.470;12.072;2023-06-04T14:03:20;1.55;;;1.45;;
9330;SDS011;4704;50.470;12.072;2023-06-04T14:05:47;2.00;;;1.42;;
9330;SDS011;4704;50.470;12.072;2023-06-04T14:08:14;1.52;;;1.42;;
9330;SDS011;4704;50.470;12.072;2023-06-04T14:10:42;2.40;;;1.80;;
9330;SDS011;4704;50.470;12.072;2023-06-04T14:13:11;1.83;;;1.65;;
9330;SDS011;4704;50.470;12.072;2023-06-04T14:15:38;2.72;;;1.65;;
9330;SDS011;4704;50.470;12.072;2023-06-04T14:18:06;2.88;;;1.70;;
9330;SDS011;4704;50.470;12.072;2023-06-04T14:20:33;2.55;;;1.85;;
9330;SDS011;4704;50.470;12.072;2023-06-04T14:23:00;2.50;;;1.60;;
9330;SDS011;4704;50.470;12.072;2023-06-04T14:25:28;1.95;;;1.63;;
9330;SDS011;4704;50.470;12.072;2023-06-04T14:27:55;4.05;;;1.95;;
9330;SDS011;4704;50.470;12.072;2023-06-04T14:30:24;1.95;;;1.75;;
9330;SDS011;4704;50.470;12.072;2023-06-04T14:32:51;2.50;;;1.80;;
9330;SDS011;4704;50.470;12.072;2023-06-04T14:35:18;1.90;;;1.50;;
9330;SDS011;4704;50.470;12.072;2023-06-04T14:37:46;3.88;;;1.80;;
9330;SDS011;4704;50.470;12.072;2023-06-04T14:40:13;2.70;;;1.98;;
9330;SDS011;4704;50.470;12.072;2023-06-04T14:42:41;3.00;;;1.70;;
9330;SDS011;4704;50.470;12.072;2023-06-04T14:45:08;2.35;;;1.85;;
9330;SDS011;4704;50.470;12.072;2023-06-04T14:47:37;2.20;;;1.92;;
9330;SDS011;4704;50.470;12.072;2023-06-04T14:50:05;2.42;;;1.95;;
9330;SDS011;4704;50.470;12.072;2023-06-04T14:52:32;2.28;;;1.70;;
9330;SDS011;4704;50.470;12.072;2023-06-04T14:55:00;1.80;;;1.70;;
9330;SDS011;4704;50.470;12.072;2023-06-04T14:57:27;1.95;;;1.58;;
9330;SDS011;4704;50.470;12.072;2023-06-04T14:59:55;2.13;;;1.52;;
9330;SDS011;4704;50.470;12.072;2023-06-04T15:02:22;2.42;;;1.60;;
9330;SDS011;4704;50.470;12.072;2023-06-04T15:04:51;2.58;;;1.73;;
9330;SDS011;4704;50.470;12.072;2023-06-04T15:07:18;1.58;;;1.48;;